CTC2 weather

Public forecast

Using degrees Celsius for public forecast. Weather courtesy of forecast.io.

Closest aviation weather report (METAR) to St-Alphonse/Lac Cloutier Seaplane Base

Closest report is Montreal International (Mirabel) Airport, 34.7 nm (64.3 km) SSW. Retrieved 2020/08/14 01:00 UTC (53 minutes ago):

CYMX 140100Z 35002KT 25SM FEW080 SCT150 SCT260 20/16 A3013 RMK AC2AC1CI1 SLP203 DENSITY ALT 800FT

Closest aviation forecast (TAF) to St-Alphonse/Lac Cloutier Seaplane Base

Closest forecast is Montreal International (Mirabel) Airport, 34.7 nm (64.3 km) SSW. Retrieved 2020-08-14 00:42 UTC (1 hour ago):

TAF CYMX 132338Z 1400/1424 03005KT P6SM FEW070 FM141000 03006KT P6SM SCT050 FM141500 06008KT P6SM FEW050 BECMG 1419/1421 07012KT RMK NXT FCST BY 140600Z